Time;durP1;ratioP1;P1;durP2;ratioP2;P2;SDS_P1;SDS_P2;PMS_P1;PMS_P2;Temp;Humidity;BMP_temperature;BMP_pressure;BME280_temperature;BME280_humidity;BME280_pressure;Samples;Min_cycle;Max_cycle;Signal;HPM_P1;HPM_P2
2023/08/23 00:00:25;;;;;;;10.55;8.15;;;;;;;26.66;52.17;99213.28;4369295;32;34859;-89
2023/08/23 00:02:53;;;;;;;12.30;7.95;;;;;;;26.71;52.33;99213.06;4358573;32;34692;-88
2023/08/23 00:05:21;;;;;;;12.60;7.87;;;;;;;26.69;52.61;99204.28;4365379;32;34090;-95
2023/08/23 00:07:48;;;;;;;12.48;7.95;;;;;;;26.74;52.52;99202.25;4370343;32;34100;-87
2023/08/23 00:10:17;;;;;;;10.40;8.07;;;;;;;26.72;52.25;99198.81;4362494;32;33306;-93
2023/08/23 00:12:44;;;;;;;14.25;8.52;;;;;;;26.68;52.31;99205.25;4363508;32;33507;-90
2023/08/23 00:15:12;;;;;;;9.98;8.13;;;;;;;26.70;52.55;99192.72;4368401;32;35128;-95
2023/08/23 00:17:40;;;;;;;11.60;8.07;;;;;;;26.63;52.73;99207.28;4367499;32;34553;-90
2023/08/23 00:20:07;;;;;;;10.18;7.82;;;;;;;26.67;52.73;99192.91;4365179;32;33313;-95
2023/08/23 00:22:35;;;;;;;11.80;8.52;;;;;;;26.65;52.72;99189.44;4365781;32;34030;-87
2023/08/23 00:25:03;;;;;;;11.65;7.53;;;;;;;26.62;52.71;99186.94;4367049;32;34170;-85
2023/08/23 00:27:31;;;;;;;8.85;7.57;;;;;;;26.51;52.82;99190.16;4366656;32;34894;-85
2023/08/23 00:29:58;;;;;;;9.95;7.57;;;;;;;26.37;52.80;99182.03;4368473;32;32496;-93
2023/08/23 00:32:27;;;;;;;8.45;7.55;;;;;;;26.48;52.65;99179.72;4364778;32;33535;-86
2023/08/23 00:34:55;;;;;;;9.15;7.50;;;;;;;26.44;52.57;99180.75;4364223;32;33266;-86
2023/08/23 00:37:22;;;;;;;12.90;7.85;;;;;;;26.49;52.32;99178.75;4367105;32;33076;-94
2023/08/23 00:39:51;;;;;;;10.68;7.82;;;;;;;26.39;52.39;99175.69;4365142;32;34209;-96
2023/08/23 00:42:19;;;;;;;10.77;8.23;;;;;;;26.34;52.58;99171.56;4365613;32;33946;-93
2023/08/23 00:44:46;;;;;;;9.95;7.70;;;;;;;26.34;53.05;99172.41;4364960;32;34557;-92
2023/08/23 00:47:14;;;;;;;11.20;8.35;;;;;;;26.33;53.35;99172.47;4367650;32;33698;-95
2023/08/23 00:49:42;;;;;;;12.85;8.52;;;;;;;26.35;53.15;99170.59;4358819;32;33128;-89
2023/08/23 00:52:09;;;;;;;12.73;7.68;;;;;;;26.29;53.20;99165.59;4363889;32;34569;-89
2023/08/23 00:54:37;;;;;;;9.48;8.32;;;;;;;26.36;53.08;99173.16;4358366;32;33850;-90
2023/08/23 00:57:06;;;;;;;11.57;8.73;;;;;;;26.29;53.52;99176.22;4360043;32;33949;-87
2023/08/23 00:59:35;;;;;;;10.90;8.43;;;;;;;26.13;54.00;99166.38;4365044;32;32160;-87
2023/08/23 01:02:03;;;;;;;10.80;8.15;;;;;;;26.16;54.10;99166.22;4357962;32;33944;-90
2023/08/23 01:04:31;;;;;;;11.15;8.70;;;;;;;26.08;54.59;99163.09;4356039;32;34125;-87
2023/08/23 01:07:14;;;;;;;9.80;8.65;;;;;;;26.05;54.74;99167.72;4366806;32;34782;-95
2023/08/23 01:09:46;;;;;;;10.32;8.63;;;;;;;26.23;54.38;99171.25;4364666;32;32862;-95
2023/08/23 01:13:02;;;;;;;13.65;9.80;;;;;;;26.11;54.51;99162.97;4364577;32;34203;-88
2023/08/23 01:15:31;;;;;;;12.60;8.80;;;;;;;26.22;54.39;99164.22;4357362;32;33763;-88
2023/08/23 01:17:59;;;;;;;10.40;9.13;;;;;;;26.04;54.68;99160.69;4362845;32;34064;-87
2023/08/23 01:20:27;;;;;;;12.10;8.82;;;;;;;26.10;54.62;99160.34;4372102;32;34372;-86
2023/08/23 01:23:11;;;;;;;12.27;9.32;;;;;;;26.06;54.89;99170.28;4368017;32;34055;-88
2023/08/23 01:25:57;;;;;;;12.50;8.82;;;;;;;26.08;54.80;99165.78;4347765;32;34367;-87
2023/08/23 01:28:25;;;;;;;10.50;8.43;;;;;;;26.13;54.74;99176.16;4365142;32;33451;-89
2023/08/23 01:30:53;;;;;;;13.30;8.82;;;;;;;26.02;55.08;99163.41;4360956;32;32587;-84
2023/08/23 01:33:37;;;;;;;11.73;8.70;;;;;;;25.91;55.05;99174.59;4369493;32;33401;-87
2023/08/23 01:36:18;;;;;;;10.65;8.75;;;;;;;25.96;55.08;99172.56;4362563;32;34971;-86
2023/08/23 01:38:47;;;;;;;8.93;7.75;;;;;;;26.03;54.83;99161.63;4354920;32;34933;-88
2023/08/23 01:41:15;;;;;;;13.10;8.65;;;;;;;25.96;54.81;99169.06;4364935;32;34305;-91
2023/08/23 01:43:47;;;;;;;10.63;8.07;;;;;;;25.87;54.68;99156.22;4359696;32;34479;-89
2023/08/23 01:46:16;;;;;;;9.93;8.23;;;;;;;25.79;55.00;99156.59;4359302;32;34020;-87
2023/08/23 01:48:44;;;;;;;11.10;9.02;;;;;;;25.85;54.74;99160.75;4359483;32;33831;-87
2023/08/23 01:51:11;;;;;;;10.20;8.23;;;;;;;25.81;54.63;99154.75;4370581;32;33240;-86
2023/08/23 01:53:40;;;;;;;9.85;8.48;;;;;;;25.74;54.90;99161.25;4359089;32;33220;-87
2023/08/23 01:56:07;;;;;;;10.15;8.50;;;;;;;25.70;55.12;99160.53;4365531;32;33485;-86
2023/08/23 01:58:35;;;;;;;12.40;8.50;;;;;;;25.76;55.09;99155.84;4365354;32;34024;-88
2023/08/23 02:01:03;;;;;;;18.70;9.15;;;;;;;25.79;55.17;99159.25;4374066;32;33447;-87
2023/08/23 02:03:30;;;;;;;12.00;9.18;;;;;;;25.61;55.70;99152.16;4369572;32;34601;-86
2023/08/23 02:05:58;;;;;;;11.80;9.10;;;;;;;25.71;55.41;99153.44;4363345;32;34866;-87
2023/08/23 02:08:26;;;;;;;10.48;9.13;;;;;;;25.73;55.11;99149.78;4361449;32;33228;-87
2023/08/23 02:10:53;;;;;;;9.57;8.18;;;;;;;25.69;55.21;99150.88;4359316;32;34441;-90
2023/08/23 02:13:21;;;;;;;10.15;8.98;;;;;;;25.61;55.47;99157.47;4367843;32;32965;-91
2023/08/23 02:15:48;;;;;;;12.73;8.10;;;;;;;25.73;55.08;99151.56;4364083;32;34880;-89
2023/08/23 02:18:16;;;;;;;11.93;8.90;;;;;;;25.69;55.53;99142.03;4365011;32;34623;-87
2023/08/23 02:20:44;;;;;;;10.00;9.00;;;;;;;25.67;55.48;99142.09;4358379;32;33854;-91
2023/08/23 02:23:12;;;;;;;13.20;8.93;;;;;;;25.62;55.33;99132.66;4359545;32;34676;-87
2023/08/23 02:25:41;;;;;;;12.90;8.55;;;;;;;25.60;55.22;99130.06;4362759;32;33539;-95
2023/08/23 02:28:09;;;;;;;11.85;8.75;;;;;;;25.66;55.19;99132.44;4365073;32;34268;-87
2023/08/23 02:30:37;;;;;;;14.15;8.65;;;;;;;25.67;55.49;99131.47;4362883;32;35169;-86
2023/08/23 02:33:04;;;;;;;13.25;9.23;;;;;;;25.65;55.79;99122.75;4364789;32;35135;-87
2023/08/23 02:35:32;;;;;;;14.73;9.10;;;;;;;25.59;56.27;99133.66;4363977;32;33733;-89
2023/08/23 02:38:01;;;;;;;12.55;8.77;;;;;;;25.60;55.78;99119.44;4368760;32;33793;-87
2023/08/23 02:40:29;;;;;;;12.90;8.93;;;;;;;25.54;55.69;99119.75;4366541;32;33608;-88
2023/08/23 02:42:57;;;;;;;12.27;8.75;;;;;;;25.53;55.76;99123.31;4362243;32;33513;-87
2023/08/23 02:45:24;;;;;;;10.60;9.25;;;;;;;25.62;55.76;99125.53;4358488;32;33997;-88
2023/08/23 02:47:52;;;;;;;13.95;9.57;;;;;;;25.64;55.69;99125.47;4363138;32;34534;-86
2023/08/23 02:50:19;;;;;;;11.63;8.90;;;;;;;25.66;55.53;99129.78;4362651;32;33734;-88
2023/08/23 02:52:47;;;;;;;10.65;8.80;;;;;;;25.56;55.75;99123.19;4363872;32;34384;-90
2023/08/23 02:55:15;;;;;;;11.73;9.25;;;;;;;25.57;55.87;99130.25;4363108;32;33731;-87
2023/08/23 02:57:42;;;;;;;13.05;8.65;;;;;;;25.55;56.35;99128.59;4368640;32;33662;-88
2023/08/23 03:00:11;;;;;;;11.43;9.57;;;;;;;25.53;56.35;99127.78;4366285;32;33195;-87
2023/08/23 03:02:39;;;;;;;13.45;9.82;;;;;;;25.41;56.51;99132.75;4361715;32;33319;-86
2023/08/23 03:05:07;;;;;;;11.25;9.48;;;;;;;25.42;56.80;99136.25;4365906;32;32794;-89
2023/08/23 03:07:35;;;;;;;12.70;9.57;;;;;;;25.50;56.42;99136.78;4366528;32;33756;-87
2023/08/23 03:10:03;;;;;;;11.48;9.57;;;;;;;25.37;56.71;99133.84;4366752;32;33591;-92
2023/08/23 03:12:30;;;;;;;11.73;9.88;;;;;;;25.42;56.47;99130.94;4366700;32;34001;-88
2023/08/23 03:14:58;;;;;;;13.98;9.82;;;;;;;25.38;56.65;99132.03;4368420;32;34721;-89
2023/08/23 03:17:25;;;;;;;12.23;10.32;;;;;;;25.33;57.06;99132.28;4362245;32;34712;-86
2023/08/23 03:19:53;;;;;;;11.52;9.52;;;;;;;25.32;57.02;99125.25;4369251;32;34467;-86
2023/08/23 03:22:20;;;;;;;10.93;9.82;;;;;;;25.34;57.08;99128.66;4362983;32;35221;-85
2023/08/23 03:24:49;;;;;;;11.35;10.00;;;;;;;25.18;57.81;99133.00;4362181;32;34578;-92
2023/08/23 03:27:18;;;;;;;13.43;9.77;;;;;;;25.24;57.58;99133.56;4367314;32;34491;-85
2023/08/23 03:29:46;;;;;;;10.55;9.18;;;;;;;25.22;57.22;99129.28;4362202;32;33268;-85
2023/08/23 03:32:14;;;;;;;12.73;9.90;;;;;;;25.26;57.39;99127.34;4365773;32;34734;-85
2023/08/23 03:34:42;;;;;;;12.93;10.27;;;;;;;25.27;57.35;99129.03;4364160;32;35000;-86
2023/08/23 03:37:09;;;;;;;11.82;10.63;;;;;;;25.26;57.26;99128.19;4362292;32;33546;-91
2023/08/23 03:39:37;;;;;;;12.18;10.48;;;;;;;25.23;57.19;99115.94;4369063;32;33539;-85
2023/08/23 03:42:05;;;;;;;13.65;10.15;;;;;;;25.20;57.63;99117.87;4366465;32;34049;-84
2023/08/23 03:44:32;;;;;;;13.55;10.38;;;;;;;25.23;57.63;99113.28;4366369;32;33124;-85
2023/08/23 03:47:00;;;;;;;12.70;10.48;;;;;;;25.23;57.61;99118.59;4365861;32;33402;-93
2023/08/23 03:49:28;;;;;;;11.75;10.38;;;;;;;25.31;57.46;99128.00;4366157;32;34191;-90
2023/08/23 03:51:56;;;;;;;12.23;9.80;;;;;;;25.34;57.37;99126.03;4364673;32;34655;-85
2023/08/23 03:54:24;;;;;;;11.55;9.85;;;;;;;25.33;57.40;99126.09;4367234;32;34124;-91
2023/08/23 03:56:51;;;;;;;14.35;11.57;;;;;;;25.29;57.55;99135.16;4366300;32;33773;-86
2023/08/23 03:59:19;;;;;;;13.27;9.98;;;;;;;25.20;57.73;99126.69;4364434;32;33706;-86
2023/08/23 04:01:47;;;;;;;11.52;9.75;;;;;;;25.34;57.48;99133.13;4359490;32;33814;-86
2023/08/23 04:04:15;;;;;;;14.38;10.55;;;;;;;25.26;57.68;99124.69;4361352;32;33602;-87
2023/08/23 04:06:42;;;;;;;11.25;10.05;;;;;;;25.13;58.18;99127.91;4359281;32;34271;-87
2023/08/23 04:09:11;;;;;;;13.73;10.88;;;;;;;25.31;57.64;99131.50;4354244;32;34211;-86
2023/08/23 04:11:39;;;;;;;12.13;10.43;;;;;;;25.22;58.09;99123.97;4368058;32;34456;-88
2023/08/23 04:14:06;;;;;;;12.57;10.80;;;;;;;25.26;58.11;99122.03;4377551;32;33651;-96
2023/08/23 04:16:34;;;;;;;12.10;9.93;;;;;;;25.29;58.20;99120.09;4359124;32;34816;-87
2023/08/23 04:19:02;;;;;;;11.65;10.45;;;;;;;25.30;58.30;99123.59;4359523;32;34324;-87
2023/08/23 04:21:29;;;;;;;13.20;10.25;;;;;;;25.32;58.26;99116.44;4359626;32;33850;-86
2023/08/23 04:23:57;;;;;;;12.95;10.35;;;;;;;25.32;58.49;99111.13;4364467;32;34167;-93
2023/08/23 04:26:25;;;;;;;12.80;10.95;;;;;;;25.22;59.13;99105.38;4365610;32;33957;-87
2023/08/23 04:28:52;;;;;;;18.83;10.50;;;;;;;25.29;59.03;99104.16;4363009;32;33413;-91
2023/08/23 04:31:20;;;;;;;15.00;10.43;;;;;;;25.37;58.81;99104.66;4367910;32;34533;-86
2023/08/23 04:33:49;;;;;;;14.48;10.73;;;;;;;25.51;58.58;99103.97;4362777;32;33765;-87
2023/08/23 04:36:17;;;;;;;12.25;10.45;;;;;;;25.58;58.62;99105.41;4377278;32;34326;-87
2023/08/23 04:38:44;;;;;;;12.43;10.20;;;;;;;25.76;58.12;99102.75;4361361;32;34147;-86
2023/08/23 04:41:12;;;;;;;13.65;10.75;;;;;;;25.85;58.10;99100.53;4365316;32;33815;-89
2023/08/23 04:43:39;;;;;;;13.77;10.10;;;;;;;26.12;57.74;99110.69;4363405;32;34023;-85
2023/08/23 04:46:08;;;;;;;12.07;9.85;;;;;;;26.39;57.77;99113.69;4358291;32;33242;-87
2023/08/23 04:48:36;;;;;;;13.13;8.82;;;;;;;26.78;56.83;99109.84;4361021;32;34215;-87
2023/08/23 04:51:08;;;;;;;10.95;8.82;;;;;;;27.03;55.90;99112.88;4370780;32;34505;-90
2023/08/23 04:53:36;;;;;;;10.68;8.75;;;;;;;27.28;55.97;99104.44;4366108;32;33727;-92
2023/08/23 04:56:04;;;;;;;10.75;9.30;;;;;;;27.46;55.19;99107.81;4369177;32;34806;-86
2023/08/23 04:58:32;;;;;;;12.65;9.60;;;;;;;27.73;54.13;99102.72;4371072;32;33691;-87
2023/08/23 05:01:06;;;;;;;12.13;9.27;;;;;;;27.97;53.71;99118.25;4364550;32;33473;-86
2023/08/23 05:03:35;;;;;;;11.93;9.90;;;;;;;28.13;53.10;99114.56;4365295;32;33119;-88
2023/08/23 05:06:03;;;;;;;11.35;8.88;;;;;;;28.22;52.79;99104.28;4365731;32;34869;-89
2023/08/23 05:08:32;;;;;;;12.93;9.93;;;;;;;28.47;53.11;99112.53;4367469;32;33506;-94
2023/08/23 05:11:00;;;;;;;12.20;9.07;;;;;;;28.60;52.31;99102.84;4366974;32;33793;-87
2023/08/23 05:13:28;;;;;;;12.65;9.63;;;;;;;28.87;51.77;99107.38;4359278;32;34241;-87
2023/08/23 05:15:57;;;;;;;12.13;8.68;;;;;;;29.14;51.51;99098.59;4362986;32;34130;-86
2023/08/23 05:18:25;;;;;;;11.73;8.70;;;;;;;29.22;50.68;99105.16;4363235;32;33517;-87
2023/08/23 05:20:54;;;;;;;13.07;9.00;;;;;;;29.31;50.46;99098.34;4365738;32;33116;-86
2023/08/23 05:23:22;;;;;;;11.50;8.65;;;;;;;29.50;50.82;99095.31;4366965;32;34208;-87
2023/08/23 05:25:51;;;;;;;10.45;8.70;;;;;;;29.70;50.07;99096.69;4361750;32;34913;-88
2023/08/23 05:28:19;;;;;;;16.17;9.07;;;;;;;29.73;49.67;99099.16;4364086;32;31987;-87
2023/08/23 05:30:48;;;;;;;12.75;8.95;;;;;;;29.73;49.81;99093.81;4365505;32;33922;-88
2023/08/23 05:33:15;;;;;;;11.82;8.77;;;;;;;29.73;49.75;99099.16;4367486;32;36170;-87
2023/08/23 05:35:44;;;;;;;15.73;8.30;;;;;;;29.70;49.82;99094.91;4366520;32;35273;-87
2023/08/23 05:38:14;;;;;;;12.20;8.98;;;;;;;29.66;49.72;99105.88;4367237;32;33692;-90
2023/08/23 05:40:41;;;;;;;10.80;9.15;;;;;;;29.90;49.31;99100.72;4364177;32;33964;-87
2023/08/23 05:43:10;;;;;;;14.43;9.07;;;;;;;30.00;49.15;99104.44;4368195;32;33666;-87
2023/08/23 05:45:38;;;;;;;10.93;8.68;;;;;;;30.13;49.05;99104.47;4365552;32;33989;-93
2023/08/23 05:48:06;;;;;;;10.38;8.52;;;;;;;29.70;50.32;99107.38;4365459;32;32862;-86
2023/08/23 05:50:34;;;;;;;10.50;8.35;;;;;;;29.95;49.59;99110.13;4367220;32;33641;-85
2023/08/23 05:53:09;;;;;;;10.50;9.07;;;;;;;30.00;49.19;99108.00;4365369;32;33563;-92
2023/08/23 05:55:37;;;;;;;13.13;8.90;;;;;;;29.34;50.56;99115.03;4368505;32;34014;-89
2023/08/23 05:58:04;;;;;;;11.18;9.20;;;;;;;29.54;48.42;99112.84;4368222;32;33540;-87
2023/08/23 06:00:32;;;;;;;10.80;8.35;;;;;;;29.77;49.35;99111.34;4367422;32;33721;-92
2023/08/23 06:03:00;;;;;;;11.02;8.50;;;;;;;29.53;50.63;99114.66;4350827;32;34431;-86
2023/08/23 06:05:28;;;;;;;11.02;8.73;;;;;;;29.56;51.27;99117.16;4356924;32;33775;-86
2023/08/23 06:07:56;;;;;;;12.27;9.07;;;;;;;29.47;49.99;99104.41;4366358;32;32512;-86
2023/08/23 06:10:23;;;;;;;10.25;8.60;;;;;;;29.58;50.22;99112.56;4361677;32;34263;-87
2023/08/23 06:12:51;;;;;;;12.18;8.50;;;;;;;29.44;49.49;99115.28;4361547;32;34703;-89
2023/08/23 06:15:19;;;;;;;11.23;7.80;;;;;;;29.19;49.47;99113.34;4359452;32;32663;-86
2023/08/23 06:17:47;;;;;;;12.70;8.20;;;;;;;29.32;49.20;99113.41;4361726;32;33693;-90
2023/08/23 06:20:16;;;;;;;11.35;8.93;;;;;;;29.42;50.64;99113.66;4364901;32;33412;-86
2023/08/23 06:22:44;;;;;;;11.82;8.88;;;;;;;29.07;50.09;99109.66;4367674;32;34480;-86
2023/08/23 06:25:12;;;;;;;10.85;8.50;;;;;;;28.88;50.65;99113.56;4363345;32;35017;-86
2023/08/23 06:27:40;;;;;;;13.55;9.10;;;;;;;28.99;50.27;99119.97;4368854;32;34217;-87
2023/08/23 06:30:08;;;;;;;12.00;9.80;;;;;;;28.72;52.07;99121.69;4358549;32;33751;-88
2023/08/23 06:32:36;;;;;;;13.62;9.73;;;;;;;28.71;50.78;99114.63;4357428;32;33977;-87
2023/08/23 06:35:04;;;;;;;12.50;8.82;;;;;;;29.00;50.99;99124.34;4361964;32;34031;-87
2023/08/23 06:37:31;;;;;;;13.25;9.15;;;;;;;29.03;50.16;99123.31;4361184;32;33583;-87
2023/08/23 06:39:59;;;;;;;13.45;9.30;;;;;;;29.08;51.71;99116.72;4346463;32;33835;-86
2023/08/23 06:42:26;;;;;;;12.00;9.90;;;;;;;28.69;51.11;99127.22;4359351;32;33932;-87
2023/08/23 06:44:54;;;;;;;13.32;9.65;;;;;;;28.96;50.65;99128.12;4371205;32;34613;-87
2023/08/23 06:47:24;;;;;;;11.73;9.40;;;;;;;28.78;51.58;99132.81;4371821;32;32250;-85
2023/08/23 06:49:52;;;;;;;11.43;9.65;;;;;;;28.89;50.53;99124.13;4362887;32;33686;-86
2023/08/23 06:52:19;;;;;;;12.10;9.68;;;;;;;28.61;51.97;99133.88;4360320;32;33826;-89
2023/08/23 06:54:47;;;;;;;13.35;10.18;;;;;;;28.91;52.31;99135.59;4361063;32;35101;-89
2023/08/23 06:57:15;;;;;;;16.05;11.02;;;;;;;28.83;52.18;99132.56;4359004;32;33374;-87
2023/08/23 06:59:42;;;;;;;12.20;9.85;;;;;;;28.55;53.15;99142.25;4359698;32;34359;-89
2023/08/23 07:02:10;;;;;;;13.43;10.30;;;;;;;28.66;52.71;99141.59;4361623;32;33455;-89
2023/08/23 07:04:37;;;;;;;12.70;10.18;;;;;;;28.80;52.27;99135.41;4370331;32;33829;-88
2023/08/23 07:07:05;;;;;;;14.23;10.05;;;;;;;29.30;51.63;99145.56;4361447;32;33478;-88
2023/08/23 07:09:32;;;;;;;12.55;10.13;;;;;;;29.26;50.90;99146.72;4367873;32;33686;-88
2023/08/23 07:12:00;;;;;;;13.60;10.20;;;;;;;29.51;51.08;99142.44;4370940;32;34150;-87
2023/08/23 07:14:28;;;;;;;14.15;9.60;;;;;;;29.72;50.28;99137.53;4360102;32;34006;-87
2023/08/23 07:16:56;;;;;;;14.43;10.93;;;;;;;29.75;49.92;99140.84;4364601;32;33282;-87
2023/08/23 07:19:23;;;;;;;14.20;10.52;;;;;;;29.04;51.52;99149.88;4377197;32;34046;-88
2023/08/23 07:21:51;;;;;;;11.82;10.10;;;;;;;28.99;51.53;99152.00;4359914;32;34925;-86
2023/08/23 07:24:18;;;;;;;12.10;9.93;;;;;;;29.40;51.11;99145.84;4367715;32;34668;-85
2023/08/23 07:26:46;;;;;;;14.48;9.70;;;;;;;29.37;51.63;99151.38;4376957;32;33653;-84
2023/08/23 07:29:16;;;;;;;14.45;10.88;;;;;;;29.12;51.85;99156.56;4382708;32;34580;-84
2023/08/23 07:31:44;;;;;;;14.30;10.52;;;;;;;29.32;51.58;99158.78;4367055;32;34058;-85
2023/08/23 07:34:11;;;;;;;13.95;9.90;;;;;;;29.36;51.82;99156.78;4346638;32;33753;-87
2023/08/23 07:36:38;;;;;;;18.80;10.35;;;;;;;29.70;50.81;99163.47;4370725;32;35054;-87
2023/08/23 07:39:06;;;;;;;14.80;10.80;;;;;;;29.88;50.98;99166.75;4374649;32;34674;-90
2023/08/23 07:41:33;;;;;;;16.08;10.63;;;;;;;30.30;49.41;99168.38;4361322;32;34938;-92
2023/08/23 07:44:01;;;;;;;14.40;10.85;;;;;;;30.13;49.47;99168.66;4359005;32;34929;-90
2023/08/23 07:46:29;;;;;;;14.43;10.40;;;;;;;30.20;50.34;99167.31;4358713;32;33744;-91
2023/08/23 07:48:56;;;;;;;13.98;11.02;;;;;;;29.88;50.69;99167.63;4364801;32;33744;-86
2023/08/23 07:51:24;;;;;;;12.43;11.12;;;;;;;29.80;51.02;99169.94;4350774;32;32256;-87
2023/08/23 07:53:51;;;;;;;14.02;11.57;;;;;;;30.24;50.29;99169.66;4369022;32;32774;-86
2023/08/23 07:56:19;;;;;;;15.13;10.13;;;;;;;30.11;51.24;99165.22;4359854;32;33331;-90
2023/08/23 07:58:46;;;;;;;15.35;10.88;;;;;;;30.61;49.52;99169.81;4360701;32;33603;-85
2023/08/23 08:01:14;;;;;;;15.52;11.10;;;;;;;30.46;50.19;99171.72;4367294;32;35256;-86
2023/08/23 08:03:42;;;;;;;14.82;10.75;;;;;;;30.42;50.10;99172.03;4373308;32;34967;-92
2023/08/23 08:06:10;;;;;;;19.62;12.80;;;;;;;30.09;50.95;99164.47;4368668;32;33240;-84
2023/08/23 08:08:39;;;;;;;15.27;10.88;;;;;;;30.72;51.24;99175.28;4371416;32;34734;-84
2023/08/23 08:11:07;;;;;;;17.12;10.57;;;;;;;31.09;48.66;99177.16;4373581;32;33705;-83
2023/08/23 08:13:34;;;;;;;13.88;10.40;;;;;;;30.98;49.52;99176.09;4362749;32;33858;-91
2023/08/23 08:16:09;;;;;;;14.80;10.07;;;;;;;30.87;48.45;99172.47;4364731;32;34847;-84
2023/08/23 08:18:37;;;;;;;17.15;10.20;;;;;;;31.29;48.48;99175.72;4370220;32;32708;-91
2023/08/23 08:21:05;;;;;;;13.07;8.73;;;;;;;31.20;48.62;99171.91;4362899;32;34173;-84
2023/08/23 08:23:32;;;;;;;12.85;9.63;;;;;;;31.55;48.52;99165.81;4375712;32;34840;-92
2023/08/23 08:26:00;;;;;;;15.65;9.00;;;;;;;31.62;48.36;99164.41;4376622;32;33417;-83
2023/08/23 08:28:27;;;;;;;13.07;9.25;;;;;;;31.83;46.41;99162.81;4366800;32;33558;-93
2023/08/23 08:30:55;;;;;;;12.27;9.50;;;;;;;31.24;47.35;99171.56;4373486;32;33309;-86
2023/08/23 08:33:22;;;;;;;11.02;9.40;;;;;;;31.36;47.43;99169.84;4374138;32;33815;-86
2023/08/23 08:35:50;;;;;;;14.55;9.02;;;;;;;31.60;48.23;99155.63;4375937;32;33564;-84
2023/08/23 08:38:18;;;;;;;11.57;8.70;;;;;;;31.54;47.73;99158.75;4372034;32;34108;-85
2023/08/23 08:40:45;;;;;;;15.20;9.88;;;;;;;31.92;47.32;99156.78;4374586;32;35065;-84
2023/08/23 08:43:13;;;;;;;14.40;9.40;;;;;;;31.84;46.97;99160.97;4359574;32;33415;-84
2023/08/23 08:45:40;;;;;;;14.52;9.73;;;;;;;31.74;47.47;99153.59;4361447;32;33292;-85
2023/08/23 08:48:08;;;;;;;12.25;9.25;;;;;;;31.93;46.92;99169.19;4366652;32;33954;-85
2023/08/23 08:50:36;;;;;;;18.62;9.75;;;;;;;31.67;47.20;99165.78;4374501;32;33882;-90
2023/08/23 08:53:07;;;;;;;14.00;9.93;;;;;;;31.65;47.89;99164.19;4373482;32;34185;-87
2023/08/23 08:55:35;;;;;;;16.00;9.77;;;;;;;31.90;47.10;99166.78;4374889;32;33910;-84
2023/08/23 08:58:05;;;;;;;11.90;9.77;;;;;;;31.86;49.09;99167.09;4369612;32;33534;-84
2023/08/23 09:00:33;;;;;;;12.45;9.52;;;;;;;32.07;48.18;99164.63;4352094;32;34722;-92
2023/08/23 09:03:02;;;;;;;13.98;10.13;;;;;;;32.15;48.54;99156.84;4351380;32;33262;-84
2023/08/23 09:05:30;;;;;;;14.48;9.10;;;;;;;32.29;47.47;99164.69;4370109;32;33707;-86
2023/08/23 09:07:57;;;;;;;16.67;9.27;;;;;;;32.67;46.14;99158.22;4371237;32;33649;-85
2023/08/23 09:10:25;;;;;;;12.55;9.75;;;;;;;32.56;45.59;99164.41;4374320;32;34060;-86
2023/08/23 09:12:53;;;;;;;14.48;9.68;;;;;;;32.52;46.84;99167.47;4367733;32;34914;-84
2023/08/23 09:15:24;;;;;;;22.75;9.27;;;;;;;32.72;46.22;99166.75;4365681;32;33367;-84
2023/08/23 09:17:55;;;;;;;14.50;9.35;;;;;;;33.06;45.30;99169.47;4382323;32;34612;-83
2023/08/23 09:20:23;;;;;;;14.80;9.23;;;;;;;32.92;44.48;99167.84;4367250;32;34337;-86
2023/08/23 09:22:52;;;;;;;12.10;8.82;;;;;;;32.65;45.60;99170.87;4366183;32;33043;-85
2023/08/23 09:25:20;;;;;;;12.02;9.50;;;;;;;32.57;47.17;99173.31;4376516;32;34755;-88
2023/08/23 09:27:48;;;;;;;14.07;9.35;;;;;;;32.51;47.22;99176.50;4361669;32;33679;-89
2023/08/23 09:30:16;;;;;;;13.93;10.38;;;;;;;32.55;47.30;99172.59;4360785;32;34178;-88
2023/08/23 09:32:43;;;;;;;13.75;9.65;;;;;;;32.75;46.77;99171.88;4384246;32;34008;-86
2023/08/23 09:35:15;;;;;;;16.73;10.43;;;;;;;32.79;45.99;99165.28;4368977;32;34313;-85
2023/08/23 09:37:44;;;;;;;12.35;9.43;;;;;;;32.69;47.07;99165.19;4376741;32;33821;-87
2023/08/23 09:40:20;;;;;;;12.35;9.75;;;;;;;32.87;47.17;99164.69;4354083;32;33275;-88
2023/08/23 09:42:49;;;;;;;15.65;9.60;;;;;;;32.57;46.50;99158.06;4373851;32;32657;-85
2023/08/23 09:45:19;;;;;;;12.18;9.25;;;;;;;32.70;46.09;99164.19;4374459;32;33581;-87
2023/08/23 09:47:54;;;;;;;10.65;8.75;;;;;;;32.99;47.13;99161.03;4374682;32;34681;-85
2023/08/23 09:50:24;;;;;;;13.90;10.00;;;;;;;33.24;45.50;99162.63;4372649;32;34277;-89
2023/08/23 09:53:05;;;;;;;11.27;8.90;;;;;;;33.18;46.04;99157.72;4353537;32;34376;-84
2023/08/23 09:55:34;;;;;;;11.60;9.43;;;;;;;33.01;45.82;99161.78;4364326;32;33610;-89
2023/08/23 09:58:02;;;;;;;12.05;9.38;;;;;;;33.58;43.72;99162.59;4375615;32;34739;-86
2023/08/23 10:00:30;;;;;;;11.35;9.02;;;;;;;33.25;45.78;99160.78;4361222;32;33226;-86
2023/08/23 10:02:58;;;;;;;16.20;9.18;;;;;;;33.52;45.01;99157.69;4375319;32;34061;-86
2023/08/23 10:05:26;;;;;;;13.55;9.07;;;;;;;33.32;44.46;99160.16;4371096;32;32217;-85
2023/08/23 10:07:55;;;;;;;12.13;9.60;;;;;;;33.47;44.91;99157.22;4374589;32;34226;-86
2023/08/23 10:10:24;;;;;;;12.02;9.93;;;;;;;33.81;43.08;99158.81;4366374;32;33926;-85
2023/08/23 10:12:55;;;;;;;15.13;8.93;;;;;;;34.05;42.48;99142.47;4363378;32;32502;-90
2023/08/23 10:15:28;;;;;;;12.90;9.57;;;;;;;33.88;45.38;99149.25;4375344;32;34276;-85
2023/08/23 10:17:58;;;;;;;15.45;9.70;;;;;;;33.50;44.25;99140.84;4363450;32;34474;-86
2023/08/23 10:20:25;;;;;;;13.75;9.68;;;;;;;33.35;45.23;99154.53;4373891;32;34062;-91
2023/08/23 10:22:55;;;;;;;12.93;9.77;;;;;;;33.48;44.05;99145.50;4360015;32;32774;-86
2023/08/23 10:25:23;;;;;;;12.80;10.20;;;;;;;33.76;43.13;99147.63;4359731;32;33339;-86
2023/08/23 10:27:54;;;;;;;15.20;9.15;;;;;;;33.07;44.49;99147.87;4360321;32;35504;-86
2023/08/23 10:30:27;;;;;;;13.98;10.10;;;;;;;33.09;44.96;99143.22;4360612;32;34286;-85
2023/08/23 10:33:06;;;;;;;12.32;10.57;;;;;;;33.52;44.33;99149.63;4377887;32;35070;-88
2023/08/23 10:35:35;;;;;;;13.18;10.20;;;;;;;33.60;45.90;99141.78;4371220;32;33789;-84
2023/08/23 10:38:08;;;;;;;14.60;9.38;;;;;;;33.16;44.76;99144.44;4375465;32;32393;-84
2023/08/23 10:40:37;;;;;;;16.50;10.35;;;;;;;33.51;45.93;99139.87;4375706;32;34268;-90
2023/08/23 10:43:11;;;;;;;14.45;10.18;;;;;;;33.31;45.91;99145.03;4376513;32;34226;-89
2023/08/23 10:46:02;;;;;;;14.82;10.50;;;;;;;33.55;45.07;99136.78;4361800;32;33631;-89
2023/08/23 10:48:33;;;;;;;15.07;9.25;;;;;;;33.48;45.47;99137.44;4374012;32;33982;-87
2023/08/23 10:51:01;;;;;;;14.40;9.45;;;;;;;33.67;44.59;99133.06;4376635;32;34731;-87
2023/08/23 10:53:29;;;;;;;12.27;9.52;;;;;;;33.65;44.50;99131.53;4376862;32;34245;-88
2023/08/23 10:56:00;;;;;;;15.10;10.10;;;;;;;33.32;43.27;99133.28;4378874;32;34486;-95
2023/08/23 10:58:28;;;;;;;12.02;9.23;;;;;;;33.35;43.27;99126.81;4374833;32;34823;-96
2023/08/23 11:01:04;;;;;;;11.40;9.38;;;;;;;33.49;43.86;99118.50;4380777;32;34568;-89
2023/08/23 11:03:33;;;;;;;11.70;9.27;;;;;;;33.49;45.59;99123.87;4375883;32;34100;-87
2023/08/23 11:06:01;;;;;;;12.35;9.77;;;;;;;33.55;44.17;99126.03;4366928;32;34590;-85
2023/08/23 11:08:29;;;;;;;12.05;9.20;;;;;;;33.31;44.46;99128.91;4375772;32;34948;-87
2023/08/23 11:10:57;;;;;;;14.10;9.48;;;;;;;33.52;44.45;99123.59;4359493;32;33963;-85
2023/08/23 11:13:25;;;;;;;11.88;8.93;;;;;;;33.37;44.03;99125.69;4362553;32;33858;-85
2023/08/23 11:15:53;;;;;;;13.35;9.02;;;;;;;33.68;42.08;99123.22;4362355;32;33574;-85
2023/08/23 11:18:20;;;;;;;12.82;8.30;;;;;;;33.36;43.35;99129.38;4371897;32;34666;-91
2023/08/23 11:20:48;;;;;;;11.30;7.85;;;;;;;33.64;41.95;99124.41;4381333;32;35650;-86
2023/08/23 11:23:16;;;;;;;11.07;8.70;;;;;;;33.49;42.06;99123.00;4362436;32;35062;-85
2023/08/23 11:25:45;;;;;;;12.85;8.45;;;;;;;33.48;44.29;99127.53;4374202;32;33348;-88
2023/08/23 11:28:15;;;;;;;15.65;8.55;;;;;;;33.04;43.55;99123.94;4376592;32;33439;-85
2023/08/23 11:30:45;;;;;;;12.75;8.77;;;;;;;33.28;45.46;99133.66;4376296;32;34503;-89